Balikesir, Turkey
Current Conditions -  °F | °C
As of 11:50 AM on Thursday 23 Oct 2014 (Local Time) from LTBF Reporting Station
Scattered Clouds Scattered Clouds  
Wind Chill: 77°   Ceiling: Unl
Heat Index: 78°   Visibility: 6mi
Dew Point: 46°   Wind: 24mph
Humidity: 34%   Direction: 180°S
Pressure: 29.68"   Gusts: NA
Location:  39.65°N, 27.88°E
Report Text: LTBF 230850Z 18021KT 9999 SCT035 SCT100 25/08 Q1005 NOSIG
Loading
Personal Weather Stations






























Interactive Weather Map New forecast layout! Learn more

10-Day Weather Forecast

Advertisements
Track Severe Weather on mobile